Time;durP1;ratioP1;P1;durP2;ratioP2;P2;SDS_P1;SDS_P2;PMS_P1;PMS_P2;Temp;Humidity;BMP_temperature;BMP_pressure;BME280_temperature;BME280_humidity;BME280_pressure;Samples;Min_cycle;Max_cycle;Signal;HPM_P1;HPM_P2
2022/03/26 00:01:38;;;;;;;40.30;26.60;;;11.30;99.90;;;;;;6160423;23;20230;-83
2022/03/26 00:04:05;;;;;;;40.63;27.50;;;11.30;99.90;;;;;;6186839;23;20138;-83
2022/03/26 00:06:32;;;;;;;37.07;26.10;;;11.30;99.90;;;;;;6186863;23;20134;-84
2022/03/26 00:08:57;;;;;;;36.57;25.13;;;11.30;99.90;;;;;;6186980;23;20146;-83
2022/03/26 00:11:23;;;;;;;39.87;25.93;;;11.20;99.90;;;;;;6186620;23;20210;-81
2022/03/26 00:13:49;;;;;;;39.60;26.67;;;11.20;99.90;;;;;;6187709;23;20165;-82
2022/03/26 00:16:15;;;;;;;40.27;26.70;;;11.20;99.90;;;;;;6188065;23;20145;-85
2022/03/26 00:18:41;;;;;;;38.97;25.17;;;11.20;99.90;;;;;;6161959;23;20141;-82
2022/03/26 00:21:07;;;;;;;38.67;25.93;;;11.10;99.90;;;;;;6188096;23;20181;-83
2022/03/26 00:23:33;;;;;;;39.90;25.97;;;11.00;99.90;;;;;;6187561;23;20673;-80
2022/03/26 00:26:00;;;;;;;37.37;24.57;;;11.00;99.90;;;;;;6185971;23;20217;-82
2022/03/26 00:28:27;;;;;;;37.87;24.90;;;11.00;99.90;;;;;;6187329;23;20138;-83
2022/03/26 00:30:53;;;;;;;37.90;25.60;;;10.90;99.90;;;;;;6187225;23;20158;-83
2022/03/26 00:33:19;;;;;;;38.33;26.77;;;11.00;99.90;;;;;;6186418;23;20539;-83
2022/03/26 00:35:45;;;;;;;35.83;23.97;;;11.00;1.00;;;;;;6160025;23;20193;-84
2022/03/26 00:38:10;;;;;;;37.23;24.13;;;10.90;1.00;;;;;;6186863;23;20617;-82
2022/03/26 00:40:37;;;;;;;35.43;25.40;;;10.90;1.00;;;;;;6187254;23;20138;-83
2022/03/26 00:43:03;;;;;;;34.33;24.43;;;10.80;1.00;;;;;;6186940;23;20501;-84
2022/03/26 00:45:29;;;;;;;35.03;24.63;;;10.70;1.00;;;;;;6187200;23;20139;-81
2022/03/26 00:47:56;;;;;;;37.13;24.50;;;10.80;1.00;;;;;;6187662;23;20179;-83
2022/03/26 00:50:23;;;;;;;37.03;24.33;;;10.80;1.00;;;;;;6205247;23;20145;-77
2022/03/26 00:52:49;;;;;;;36.90;25.40;;;10.80;1.00;;;;;;6204130;23;20181;-81
2022/03/26 00:55:14;;;;;;;38.37;26.63;;;10.70;1.00;;;;;;6190381;23;20134;-84
2022/03/26 00:57:43;;;;;;;39.33;25.47;;;10.80;1.00;;;;;;6188586;23;20142;-83
2022/03/26 01:00:10;;;;;;;37.47;25.63;;;10.90;1.00;;;;;;6188277;23;20177;-82
2022/03/26 01:02:36;;;;;;;41.47;23.63;;;10.70;26.50;;;;;;6187285;23;20184;-81
2022/03/26 01:05:02;;;;;;;35.43;24.30;;;10.70;1.00;;;;;;6188369;23;20138;-81
2022/03/26 01:07:28;;;;;;;37.73;26.17;;;10.70;1.00;;;;;;6200981;23;20138;-78
2022/03/26 01:09:54;;;;;;;35.30;24.73;;;10.60;80.60;;;;;;6181909;23;20158;-82
2022/03/26 01:12:20;;;;;;;35.30;24.67;;;10.60;78.20;;;;;;6191490;23;20180;-81
2022/03/26 01:14:53;;;;;;;35.10;23.20;;;10.70;99.90;;;;;;6189516;23;20146;-83
2022/03/26 01:17:24;;;;;;;35.70;24.43;;;10.60;99.90;;;;;;6188448;23;20145;-83
2022/03/26 01:19:51;;;;;;;36.97;25.27;;;10.60;99.90;;;;;;6163071;23;20160;-82
2022/03/26 01:22:17;;;;;;;36.87;24.00;;;10.50;99.90;;;;;;6188881;23;20177;-83
2022/03/26 01:24:43;;;;;;;36.53;24.33;;;10.50;99.90;;;;;;6189208;23;20169;-82
2022/03/26 01:27:09;;;;;;;36.97;23.90;;;10.50;99.90;;;;;;6189643;23;20165;-81
2022/03/26 01:29:38;;;;;;;38.90;25.47;;;10.40;99.90;;;;;;6190785;23;20161;-83
2022/03/26 01:32:07;;;;;;;34.47;22.17;;;10.40;99.90;;;;;;6193596;23;20141;-82
2022/03/26 01:34:32;;;;;;;34.70;23.77;;;10.40;99.90;;;;;;6175273;23;20173;-81
2022/03/26 01:36:58;;;;;;;36.03;23.67;;;10.40;99.90;;;;;;6202772;23;20130;-82
2022/03/26 01:39:24;;;;;;;37.77;24.90;;;10.40;99.90;;;;;;6209842;23;20157;-82
2022/03/26 01:41:50;;;;;;;38.87;24.30;;;10.40;99.90;;;;;;6209373;22;20142;-77
2022/03/26 01:44:16;;;;;;;34.17;23.10;;;10.30;99.90;;;;;;6212178;23;20122;-82
2022/03/26 01:46:51;;;;;;;32.67;24.10;;;10.40;99.90;;;;;;6213020;22;20160;-79
2022/03/26 01:49:19;;;;;;;42.63;23.87;;;10.40;99.90;;;;;;6213958;23;20126;-78
2022/03/26 01:51:50;;;;;;;35.83;23.83;;;10.30;99.90;;;;;;6212933;22;20132;-75
2022/03/26 01:54:17;;;;;;;33.67;22.87;;;10.30;99.90;;;;;;6213113;22;20125;-77
2022/03/26 01:56:43;;;;;;;33.80;24.67;;;10.30;99.90;;;;;;6204413;23;20130;-80
2022/03/26 01:59:10;;;;;;;37.00;24.20;;;10.30;99.90;;;;;;6192429;23;20201;-83
2022/03/26 02:01:40;;;;;;;35.57;24.50;;;10.20;1.00;;;;;;6190482;23;20130;-83
2022/03/26 02:04:12;;;;;;;34.43;21.87;;;10.20;1.00;;;;;;6188748;23;20142;-80
2022/03/26 02:06:40;;;;;;;38.10;23.33;;;10.20;1.00;;;;;;6188625;23;20197;-79
2022/03/26 02:09:12;;;;;;;37.20;24.47;;;10.10;1.00;;;;;;6186822;23;20138;-80
2022/03/26 02:11:40;;;;;;;36.43;23.33;;;10.10;1.00;;;;;;6206039;23;20140;-77
2022/03/26 02:14:10;;;;;;;40.00;25.27;;;10.10;1.00;;;;;;6211774;23;20150;-81
2022/03/26 02:16:37;;;;;;;36.43;25.30;;;10.00;97.90;;;;;;6197566;23;20217;-81
2022/03/26 02:19:05;;;;;;;35.13;23.87;;;10.00;99.90;;;;;;6189179;23;20145;-83
2022/03/26 02:21:35;;;;;;;37.93;25.60;;;10.00;99.90;;;;;;6209368;23;20175;-75
2022/03/26 02:24:06;;;;;;;35.47;23.70;;;10.00;99.90;;;;;;6211961;23;20229;-77
2022/03/26 02:26:32;;;;;;;38.60;24.90;;;10.10;1.00;;;;;;6192181;23;20131;-81
2022/03/26 02:29:08;;;;;;;37.77;23.90;;;10.10;99.90;;;;;;6188480;23;20225;-84
2022/03/26 02:31:38;;;;;;;37.43;25.20;;;10.10;1.00;;;;;;6186728;23;20500;-83
2022/03/26 02:34:06;;;;;;;38.30;25.00;;;10.00;20.10;;;;;;6186365;23;20596;-82
2022/03/26 02:36:33;;;;;;;38.37;25.17;;;10.00;99.90;;;;;;6186322;23;20130;-83
2022/03/26 02:38:58;;;;;;;36.43;24.13;;;9.90;99.90;;;;;;6186111;23;20138;-82
2022/03/26 02:41:24;;;;;;;36.63;25.17;;;9.90;99.90;;;;;;6186826;23;20208;-82
2022/03/26 02:43:50;;;;;;;32.73;23.43;;;9.90;99.90;;;;;;6159709;23;20189;-83
2022/03/26 02:46:16;;;;;;;36.70;24.17;;;9.90;1.00;;;;;;6186233;23;20169;-81
2022/03/26 02:48:44;;;;;;;41.27;24.87;;;9.90;1.00;;;;;;6159828;23;20579;-79
2022/03/26 02:51:10;;;;;;;33.03;24.33;;;9.90;99.90;;;;;;6186171;23;20213;-81
2022/03/26 02:53:35;;;;;;;38.50;24.53;;;10.00;99.90;;;;;;6186197;23;20158;-82
2022/03/26 02:56:01;;;;;;;38.07;25.33;;;9.90;99.90;;;;;;6186352;23;20192;-78
2022/03/26 02:58:27;;;;;;;35.07;24.37;;;9.90;1.00;;;;;;6185862;23;20141;-83
2022/03/26 03:00:52;;;;;;;34.23;24.83;;;10.00;99.90;;;;;;6159417;23;20186;-82
2022/03/26 03:03:19;;;;;;;36.03;24.40;;;9.90;99.90;;;;;;6186902;23;20177;-82
2022/03/26 03:05:48;;;;;;;35.93;25.10;;;9.90;99.90;;;;;;6162877;23;20626;-79
2022/03/26 03:08:15;;;;;;;34.00;23.30;;;9.90;99.90;;;;;;6189269;23;20166;-79
2022/03/26 03:10:42;;;;;;;35.33;23.07;;;9.80;99.90;;;;;;6186077;23;20527;-83
2022/03/26 03:13:09;;;;;;;35.47;23.50;;;9.70;1.00;;;;;;6186538;23;20165;-83
2022/03/26 03:15:36;;;;;;;36.77;25.43;;;9.60;99.90;;;;;;6201055;23;20137;-77
2022/03/26 03:18:02;;;;;;;37.33;24.77;;;9.60;99.90;;;;;;6200618;23;20134;-82
2022/03/26 03:20:32;;;;;;;33.33;23.33;;;9.50;1.00;;;;;;6187570;23;20478;-80
2022/03/26 03:22:59;;;;;;;40.43;24.83;;;9.50;1.00;;;;;;6186129;23;20177;-83
2022/03/26 03:25:26;;;;;;;33.50;24.17;;;9.50;1.00;;;;;;6187977;23;20626;-82
2022/03/26 03:27:52;;;;;;;35.77;24.23;;;9.50;1.00;;;;;;6189976;23;20130;-81
2022/03/26 03:30:18;;;;;;;37.33;24.90;;;9.50;50.30;;;;;;6202459;23;20134;-80
2022/03/26 03:32:44;;;;;;;42.00;26.40;;;9.40;99.90;;;;;;6202509;23;20144;-79
2022/03/26 03:35:10;;;;;;;37.20;25.63;;;9.40;1.00;;;;;;6194744;23;20634;-82
2022/03/26 03:37:42;;;;;;;38.10;24.80;;;9.40;1.00;;;;;;6190002;23;20142;-81
2022/03/26 03:40:09;;;;;;;35.80;24.63;;;9.30;20.70;;;;;;6188098;23;20146;-82
2022/03/26 03:42:34;;;;;;;38.83;24.73;;;9.30;99.90;;;;;;6187501;23;20579;-83
2022/03/26 03:45:01;;;;;;;38.90;25.03;;;9.30;1.00;;;;;;6187893;23;20137;-82
2022/03/26 03:47:26;;;;;;;36.50;24.40;;;9.20;95.80;;;;;;6187708;23;20232;-81
2022/03/26 03:49:52;;;;;;;37.53;25.30;;;9.10;1.00;;;;;;6188092;23;20443;-82
2022/03/26 03:52:18;;;;;;;35.97;25.37;;;9.20;1.00;;;;;;6187665;23;20134;-83
2022/03/26 03:54:43;;;;;;;36.33;25.27;;;9.10;1.00;;;;;;6187603;23;20241;-83
2022/03/26 03:57:09;;;;;;;34.77;24.60;;;9.10;11.40;;;;;;6187623;23;20145;-81
2022/03/26 03:59:35;;;;;;;37.20;24.97;;;9.10;1.00;;;;;;6188133;23;20130;-83
2022/03/26 04:02:01;;;;;;;36.20;24.10;;;9.20;4.00;;;;;;6189281;23;20166;-83
2022/03/26 04:04:26;;;;;;;38.40;24.83;;;9.10;99.90;;;;;;6192754;23;20156;-83
2022/03/26 04:06:52;;;;;;;38.20;24.60;;;9.10;34.70;;;;;;6193543;23;20134;-83
2022/03/26 04:09:18;;;;;;;37.30;25.27;;;9.10;99.90;;;;;;6187642;23;20655;-80
2022/03/26 04:11:44;;;;;;;37.90;25.80;;;9.10;99.90;;;;;;6187292;23;20169;-83
2022/03/26 04:14:09;;;;;;;35.67;25.90;;;9.00;99.90;;;;;;6187668;23;20185;-81
2022/03/26 04:16:35;;;;;;;38.03;25.47;;;9.00;1.00;;;;;;6187097;23;20138;-80
2022/03/26 04:19:01;;;;;;;36.97;25.40;;;9.00;1.00;;;;;;6188001;23;20256;-82
2022/03/26 04:21:26;;;;;;;37.50;24.93;;;9.00;99.90;;;;;;6188067;23;20221;-82
2022/03/26 04:23:52;;;;;;;38.73;25.57;;;9.00;1.00;;;;;;6187889;23;20188;-85
2022/03/26 04:26:18;;;;;;;39.80;25.90;;;9.00;99.90;;;;;;6187295;23;20142;-83
2022/03/26 04:28:44;;;;;;;37.17;26.13;;;8.90;1.00;;;;;;6187539;23;20250;-82
2022/03/26 04:31:09;;;;;;;38.23;25.33;;;8.90;11.00;;;;;;6187469;23;20595;-81
2022/03/26 04:33:35;;;;;;;39.00;25.63;;;8.90;1.00;;;;;;6187210;23;20184;-82
2022/03/26 04:36:02;;;;;;;38.57;26.20;;;8.90;1.00;;;;;;6186011;23;20146;-83
2022/03/26 04:38:27;;;;;;;40.87;25.83;;;8.80;1.00;;;;;;6187173;23;20536;-82
2022/03/26 04:40:53;;;;;;;39.20;25.77;;;8.80;1.00;;;;;;6187147;23;20161;-83
2022/03/26 04:43:21;;;;;;;38.47;24.70;;;8.90;1.00;;;;;;6187084;23;20480;-83
2022/03/26 04:45:47;;;;;;;38.90;26.47;;;8.80;1.00;;;;;;6187030;23;20131;-84
2022/03/26 04:48:13;;;;;;;41.33;25.73;;;8.90;1.00;;;;;;6187755;23;20165;-82
2022/03/26 04:50:39;;;;;;;38.27;26.33;;;8.80;1.00;;;;;;6159566;23;20241;-80
2022/03/26 04:53:05;;;;;;;34.27;24.43;;;8.80;99.90;;;;;;6187489;23;20138;-82
2022/03/26 04:55:31;;;;;;;40.63;25.60;;;8.80;1.00;;;;;;6186558;23;20138;-82
2022/03/26 04:57:57;;;;;;;36.90;24.73;;;8.90;99.90;;;;;;6187371;23;20134;-80
2022/03/26 05:00:23;;;;;;;39.07;25.00;;;8.80;99.90;;;;;;6160939;23;20153;-82
2022/03/26 05:02:48;;;;;;;39.77;26.97;;;8.80;1.00;;;;;;6187293;23;20178;-80
2022/03/26 05:05:15;;;;;;;37.97;24.53;;;8.90;99.90;;;;;;6188300;23;20131;-82
2022/03/26 05:07:47;;;;;;;42.43;26.33;;;8.70;99.90;;;;;;6188278;23;20249;-82
2022/03/26 05:10:20;;;;;;;39.70;26.00;;;8.70;99.90;;;;;;6187918;23;20182;-81
2022/03/26 05:12:49;;;;;;;35.77;24.70;;;8.70;1.00;;;;;;6199089;22;20176;-80
2022/03/26 05:15:16;;;;;;;38.23;24.67;;;8.70;99.90;;;;;;6213221;22;20141;-79
2022/03/26 05:17:42;;;;;;;36.87;25.40;;;8.70;99.90;;;;;;6190964;23;20141;-80
2022/03/26 05:20:09;;;;;;;39.77;26.00;;;8.70;1.00;;;;;;6189722;23;20513;-81
2022/03/26 05:22:37;;;;;;;42.17;26.50;;;8.70;1.00;;;;;;6162471;23;20181;-81
2022/03/26 05:25:04;;;;;;;43.17;26.30;;;8.70;81.20;;;;;;6190388;23;20583;-83
2022/03/26 05:27:30;;;;;;;41.73;26.03;;;8.70;1.00;;;;;;6189545;23;20146;-83
2022/03/26 05:29:56;;;;;;;41.43;26.67;;;8.70;99.90;;;;;;6194719;23;20572;-82
2022/03/26 05:32:21;;;;;;;42.77;26.00;;;8.60;1.00;;;;;;6205377;23;20145;-79
2022/03/26 05:34:47;;;;;;;39.80;26.47;;;8.60;99.90;;;;;;6208388;23;20138;-80
2022/03/26 05:37:14;;;;;;;41.83;25.30;;;8.70;85.10;;;;;;6185823;23;20134;-81
2022/03/26 05:39:39;;;;;;;41.10;26.90;;;8.60;99.90;;;;;;6188561;23;20138;-78
2022/03/26 05:42:06;;;;;;;36.30;24.00;;;8.60;1.00;;;;;;6211457;23;20180;-79
2022/03/26 05:44:31;;;;;;;39.83;26.60;;;8.60;1.00;;;;;;6211539;22;20149;-83
2022/03/26 05:47:00;;;;;;;37.50;25.83;;;8.60;1.00;;;;;;6211372;23;20158;-82
2022/03/26 05:49:27;;;;;;;40.73;26.80;;;8.60;9.70;;;;;;6207254;23;20146;-82
2022/03/26 05:51:54;;;;;;;42.87;26.53;;;8.60;47.40;;;;;;6209545;23;20122;-80
2022/03/26 05:54:20;;;;;;;38.70;27.33;;;8.50;1.00;;;;;;6211575;23;20152;-82
2022/03/26 05:56:59;;;;;;;40.07;26.53;;;8.60;99.90;;;;;;6203348;23;20207;-82
2022/03/26 05:59:29;;;;;;;39.13;26.83;;;8.60;99.90;;;;;;6201655;23;20165;-81
2022/03/26 06:01:57;;;;;;;41.97;27.07;;;8.60;99.90;;;;;;6201722;23;20168;-82
2022/03/26 06:04:28;;;;;;;37.03;25.50;;;8.60;1.00;;;;;;6203321;23;20149;-80
2022/03/26 06:06:56;;;;;;;36.77;26.20;;;8.70;99.90;;;;;;6206615;23;20161;-83
2022/03/26 06:09:28;;;;;;;38.37;26.67;;;8.70;99.90;;;;;;6194344;23;20138;-81
2022/03/26 06:11:56;;;;;;;39.20;30.20;;;8.70;1.00;;;;;;6191371;23;20181;-81
2022/03/26 06:14:24;;;;;;;45.47;25.70;;;8.70;99.90;;;;;;6189518;23;20134;-81
2022/03/26 06:17:10;;;;;;;42.43;26.83;;;8.70;99.90;;;;;;6205460;23;20134;-79
2022/03/26 06:19:36;;;;;;;35.87;26.43;;;8.70;99.90;;;;;;6210025;23;20125;-82
2022/03/26 06:22:04;;;;;;;41.83;26.43;;;8.70;90.70;;;;;;6195306;23;20169;-81
2022/03/26 06:24:30;;;;;;;41.93;26.80;;;8.70;99.90;;;;;;6189769;23;20161;-82
2022/03/26 06:27:07;;;;;;;39.23;26.07;;;8.70;1.00;;;;;;6186830;23;20134;-82
2022/03/26 06:29:36;;;;;;;46.03;27.40;;;8.60;1.00;;;;;;6187401;23;20574;-82
2022/03/26 06:32:02;;;;;;;40.90;27.40;;;8.60;1.00;;;;;;6186637;23;20567;-80
2022/03/26 06:34:30;;;;;;;44.53;27.83;;;8.50;99.90;;;;;;6186135;23;20149;-84
2022/03/26 06:36:56;;;;;;;41.20;26.33;;;8.60;1.00;;;;;;6186113;23;20169;-83
2022/03/26 06:39:22;;;;;;;40.43;29.10;;;8.60;1.00;;;;;;6186653;23;20470;-83
2022/03/26 06:41:48;;;;;;;42.50;27.00;;;8.60;99.90;;;;;;6187029;23;20154;-81
2022/03/26 06:44:13;;;;;;;35.97;25.53;;;8.60;99.90;;;;;;6186681;23;20579;-84
2022/03/26 06:46:40;;;;;;;41.70;26.77;;;8.70;1.00;;;;;;6186876;23;20219;-83
2022/03/26 06:49:10;;;;;;;40.10;26.07;;;8.80;25.80;;;;;;6186826;23;20260;-81
2022/03/26 06:51:38;;;;;;;41.27;26.40;;;8.90;1.00;;;;;;6187005;23;20157;-83
2022/03/26 06:54:04;;;;;;;42.13;27.00;;;8.90;99.90;;;;;;6187298;23;20134;-82
2022/03/26 06:56:30;;;;;;;41.40;26.73;;;9.10;1.00;;;;;;6186585;23;20199;-82
2022/03/26 06:58:56;;;;;;;42.90;26.17;;;9.00;1.00;;;;;;6187201;23;20138;-82
2022/03/26 07:01:21;;;;;;;42.23;28.00;;;9.10;99.90;;;;;;6186782;23;20138;-82
2022/03/26 07:03:48;;;;;;;43.37;27.80;;;9.00;99.90;;;;;;6161053;23;20185;-81
2022/03/26 07:06:15;;;;;;;38.70;27.33;;;9.10;1.00;;;;;;6186300;23;20134;-80
2022/03/26 07:08:42;;;;;;;42.23;27.97;;;9.20;1.00;;;;;;6186966;23;20664;-82
2022/03/26 07:11:07;;;;;;;44.13;28.90;;;9.20;99.90;;;;;;6186870;23;20149;-84
2022/03/26 07:13:33;;;;;;;45.10;27.90;;;9.20;1.00;;;;;;6161028;23;20192;-82
2022/03/26 07:15:59;;;;;;;40.73;28.03;;;9.40;50.80;;;;;;6187961;23;20216;-81
2022/03/26 07:18:24;;;;;;;46.63;29.30;;;9.40;83.90;;;;;;6162142;23;20149;-82
2022/03/26 07:20:52;;;;;;;41.87;29.47;;;9.50;1.00;;;;;;6187364;23;20142;-82
2022/03/26 07:23:18;;;;;;;40.53;28.67;;;9.60;32.70;;;;;;6186503;23;20606;-80
2022/03/26 07:25:44;;;;;;;42.33;27.87;;;9.70;1.00;;;;;;6186745;23;20599;-83
2022/03/26 07:28:09;;;;;;;49.87;29.53;;;9.90;1.00;;;;;;6160653;23;20150;-83
2022/03/26 07:30:35;;;;;;;46.40;30.13;;;10.00;99.90;;;;;;6186594;23;20134;-81
2022/03/26 07:33:02;;;;;;;44.73;28.23;;;10.00;99.90;;;;;;6186371;23;20579;-83
2022/03/26 07:35:30;;;;;;;44.50;28.80;;;10.00;1.00;;;;;;6185840;23;20162;-82
2022/03/26 07:37:56;;;;;;;42.57;28.23;;;9.90;1.00;;;;;;6186739;23;20570;-83
2022/03/26 07:40:21;;;;;;;42.37;28.10;;;10.00;33.50;;;;;;6186713;23;20146;-82
2022/03/26 07:42:47;;;;;;;41.90;28.30;;;9.90;1.00;;;;;;6187740;23;20211;-83
2022/03/26 07:45:13;;;;;;;47.70;30.97;;;10.00;99.90;;;;;;6187968;23;20232;-79
2022/03/26 07:47:39;;;;;;;39.17;29.03;;;10.10;1.00;;;;;;6186843;23;20162;-79
2022/03/26 07:50:06;;;;;;;44.80;29.67;;;10.10;1.00;;;;;;6186077;23;20138;-85
2022/03/26 07:52:32;;;;;;;47.23;31.00;;;10.20;99.90;;;;;;6186474;23;20146;-81
2022/03/26 07:54:58;;;;;;;42.60;29.70;;;10.30;99.90;;;;;;6187678;23;20139;-83
2022/03/26 07:57:24;;;;;;;49.47;31.67;;;10.30;99.90;;;;;;6197697;22;20213;-81
2022/03/26 07:59:50;;;;;;;40.67;27.70;;;10.40;99.90;;;;;;6205559;23;20144;-82
2022/03/26 08:02:16;;;;;;;45.37;30.37;;;10.50;22.40;;;;;;6189802;23;20173;-83
2022/03/26 08:04:45;;;;;;;40.80;28.57;;;10.50;1.00;;;;;;6187557;23;20216;-82
2022/03/26 08:07:11;;;;;;;43.23;29.23;;;10.40;72.90;;;;;;6188607;23;20146;-81
2022/03/26 08:09:37;;;;;;;45.60;30.40;;;10.50;1.00;;;;;;6189315;23;20198;-82
2022/03/26 08:12:03;;;;;;;46.37;29.67;;;10.50;1.00;;;;;;6204656;23;20570;-83
2022/03/26 08:14:30;;;;;;;45.17;28.97;;;10.60;1.00;;;;;;6197253;23;20165;-80
2022/03/26 08:16:56;;;;;;;46.00;29.57;;;10.70;99.90;;;;;;6192351;23;20141;-81
2022/03/26 08:19:22;;;;;;;42.97;28.00;;;10.70;99.90;;;;;;6192408;23;20150;-83
2022/03/26 08:21:47;;;;;;;40.97;30.10;;;10.60;1.00;;;;;;6191732;23;20154;-82
2022/03/26 08:24:13;;;;;;;44.77;31.23;;;10.70;1.00;;;;;;6165521;23;20526;-81
2022/03/26 08:26:40;;;;;;;43.17;30.00;;;10.70;99.90;;;;;;6163190;23;20153;-82
2022/03/26 08:29:06;;;;;;;46.43;31.63;;;10.70;99.90;;;;;;6191367;23;20173;-82
2022/03/26 08:31:32;;;;;;;42.30;30.00;;;10.80;99.90;;;;;;6189571;23;20184;-81
2022/03/26 08:33:59;;;;;;;46.80;31.03;;;10.80;99.90;;;;;;6189098;23;20193;-83
2022/03/26 08:36:25;;;;;;;42.93;28.63;;;10.90;99.90;;;;;;6194946;23;20145;-81
2022/03/26 08:38:51;;;;;;;45.50;30.27;;;10.90;99.90;;;;;;6209034;23;20138;-81
2022/03/26 08:41:19;;;;;;;45.30;30.77;;;10.90;99.90;;;;;;6194224;23;20597;-80
2022/03/26 08:43:46;;;;;;;43.23;30.33;;;10.90;50.20;;;;;;6189959;23;20224;-82
2022/03/26 08:46:19;;;;;;;49.10;31.23;;;11.00;1.00;;;;;;6190730;23;20229;-82
2022/03/26 08:48:46;;;;;;;49.13;31.17;;;11.20;1.00;;;;;;6166195;23;20153;-83
2022/03/26 08:51:13;;;;;;;46.77;33.03;;;11.30;1.00;;;;;;6192678;23;20138;-82
2022/03/26 08:53:39;;;;;;;43.37;30.40;;;11.40;1.00;;;;;;6193436;23;20138;-83
2022/03/26 08:56:06;;;;;;;43.53;30.57;;;11.50;1.00;;;;;;6167784;23;20150;-83
2022/03/26 08:58:34;;;;;;;47.83;32.07;;;11.50;1.00;;;;;;6192996;23;20138;-82
2022/03/26 09:01:00;;;;;;;42.67;29.43;;;11.60;99.90;;;;;;6174367;23;20145;-85
2022/03/26 09:03:26;;;;;;;41.70;30.47;;;11.60;99.90;;;;;;6204342;23;20236;-81
2022/03/26 09:05:53;;;;;;;42.17;31.50;;;11.70;99.90;;;;;;6198629;23;20134;-82
2022/03/26 09:08:19;;;;;;;46.07;31.47;;;11.80;99.90;;;;;;6194838;23;20143;-83
2022/03/26 09:10:45;;;;;;;42.50;29.93;;;11.80;99.90;;;;;;6191482;23;20590;-84
2022/03/26 09:13:12;;;;;;;40.80;31.33;;;12.00;99.90;;;;;;6191865;23;20173;-82
2022/03/26 09:15:38;;;;;;;42.20;29.87;;;12.00;99.90;;;;;;6192821;23;20134;-82
2022/03/26 09:18:05;;;;;;;44.37;32.00;;;12.00;99.90;;;;;;6190444;23;20538;-78
2022/03/26 09:20:30;;;;;;;44.60;31.90;;;12.20;99.90;;;;;;6191055;23;20162;-82
2022/03/26 09:22:56;;;;;;;43.97;31.40;;;12.40;99.90;;;;;;6188770;23;20224;-80
2022/03/26 09:25:24;;;;;;;46.23;30.70;;;12.50;32.00;;;;;;6187928;23;20185;-82
2022/03/26 09:27:50;;;;;;;44.00;30.33;;;12.70;60.00;;;;;;6188475;23;20135;-83
2022/03/26 09:30:17;;;;;;;44.60;30.47;;;12.80;1.00;;;;;;6189914;23;20598;-84
2022/03/26 09:32:47;;;;;;;46.90;32.50;;;12.90;1.00;;;;;;6138493;23;20157;-82
2022/03/26 09:35:13;;;;;;;41.40;30.87;;;12.90;1.00;;;;;;6188181;23;20141;-82
2022/03/26 09:37:41;;;;;;;46.23;32.50;;;13.00;1.00;;;;;;6189535;23;20138;-82
2022/03/26 09:40:09;;;;;;;47.70;30.87;;;13.10;1.00;;;;;;6162075;23;20157;-84
2022/03/26 09:42:37;;;;;;;42.40;29.97;;;13.30;1.00;;;;;;6189428;23;20649;-84
2022/03/26 09:45:05;;;;;;;43.83;31.60;;;13.40;1.00;;;;;;6163109;23;20162;-82
2022/03/26 09:47:35;;;;;;;45.50;31.47;;;13.40;1.00;;;;;;6188076;23;20705;-83
2022/03/26 09:50:02;;;;;;;43.87;31.53;;;13.50;1.00;;;;;;6189104;23;20524;-84
2022/03/26 09:52:28;;;;;;;43.73;30.07;;;13.60;1.00;;;;;;6189411;23;20156;-84
2022/03/26 09:54:57;;;;;;;52.20;33.63;;;13.80;1.00;;;;;;6188478;23;20556;-84
2022/03/26 09:57:23;;;;;;;43.27;30.07;;;13.90;1.00;;;;;;6186039;23;20208;-84
2022/03/26 09:59:49;;;;;;;45.67;31.67;;;13.90;1.00;;;;;;6187045;23;20139;-84
2022/03/26 10:02:16;;;;;;;43.53;30.70;;;14.10;1.00;;;;;;6187281;23;20253;-81
2022/03/26 10:04:43;;;;;;;46.90;32.47;;;14.30;1.00;;;;;;6164464;23;20554;-84
2022/03/26 10:07:09;;;;;;;41.97;30.80;;;14.20;1.00;;;;;;6162975;23;20235;-85
2022/03/26 10:09:39;;;;;;;44.57;30.47;;;14.30;1.00;;;;;;6193641;23;20139;-87
2022/03/26 10:12:15;;;;;;;42.97;30.77;;;14.40;1.00;;;;;;6194727;23;20138;-84
2022/03/26 10:14:41;;;;;;;44.20;31.33;;;14.50;1.00;;;;;;6201641;22;20147;-85
2022/03/26 10:17:15;;;;;;;48.00;31.33;;;14.60;1.00;;;;;;6193205;23;20173;-85
2022/03/26 10:19:43;;;;;;;39.47;29.43;;;14.70;1.00;;;;;;6208479;23;20157;-85
2022/03/26 10:22:25;;;;;;;44.63;30.53;;;14.80;1.00;;;;;;6187004;22;20169;-83
2022/03/26 10:24:52;;;;;;;40.93;29.93;;;14.80;1.00;;;;;;6211475;23;20159;-85
2022/03/26 10:27:21;;;;;;;41.47;28.23;;;14.90;1.00;;;;;;6210963;22;20129;-84
2022/03/26 10:29:51;;;;;;;43.20;28.43;;;14.90;1.00;;;;;;6210889;22;20161;-84
2022/03/26 10:32:39;;;;;;;47.70;28.43;;;15.00;1.00;;;;;;6208788;23;20142;-84
2022/03/26 10:35:34;;;;;;;42.80;29.20;;;15.20;1.00;;;;;;6173840;23;20156;-83
2022/03/26 10:38:03;;;;;;;37.10;26.83;;;15.40;1.00;;;;;;6187500;23;20171;-81
2022/03/26 10:40:33;;;;;;;39.30;28.37;;;15.40;1.00;;;;;;6205356;22;20164;-81
2022/03/26 10:43:14;;;;;;;38.80;26.70;;;15.50;1.00;;;;;;6206342;23;20484;-82
2022/03/26 10:45:50;;;;;;;42.87;27.20;;;15.60;1.00;;;;;;6196973;23;20247;-83
2022/03/26 10:48:24;;;;;;;39.37;28.00;;;15.60;1.00;;;;;;6188518;23;20145;-82
2022/03/26 10:51:06;;;;;;;40.67;26.40;;;15.60;1.00;;;;;;6187035;23;20133;-78
2022/03/26 10:53:35;;;;;;;38.67;26.77;;;15.70;1.00;;;;;;6187868;23;20139;-82
2022/03/26 10:56:09;;;;;;;37.73;25.83;;;15.80;1.00;;;;;;6186832;23;20138;-78
2022/03/26 10:58:36;;;;;;;38.73;24.00;;;15.90;1.00;;;;;;6187675;23;20141;-83
2022/03/26 11:01:03;;;;;;;41.67;27.03;;;16.00;1.00;;;;;;6186411;23;20134;-84
2022/03/26 11:03:29;;;;;;;40.07;28.17;;;16.00;1.00;;;;;;6161314;23;20186;-84
2022/03/26 11:05:57;;;;;;;38.67;25.93;;;16.10;1.00;;;;;;6163145;23;20484;-84
2022/03/26 11:08:25;;;;;;;38.87;26.37;;;16.20;1.00;;;;;;6190942;23;20224;-85
2022/03/26 11:10:55;;;;;;;41.80;26.63;;;16.10;1.00;;;;;;6191034;23;20189;-85
2022/03/26 11:13:23;;;;;;;38.50;28.23;;;16.00;1.00;;;;;;6192324;23;20225;-84
2022/03/26 11:15:56;;;;;;;41.47;28.03;;;16.10;1.00;;;;;;6189962;23;20534;-82
2022/03/26 11:18:38;;;;;;;38.43;27.63;;;16.20;1.00;;;;;;6187955;23;20168;-84
2022/03/26 11:21:32;;;;;;;42.43;28.07;;;16.40;1.00;;;;;;6194961;23;20144;-85
2022/03/26 11:24:40;;;;;;;36.23;27.47;;;16.30;1.00;;;;;;6168460;23;20562;-83
2022/03/26 11:27:27;;;;;;;39.10;26.23;;;16.30;1.00;;;;;;6199793;23;20209;-85
2022/03/26 11:30:21;;;;;;;40.80;27.77;;;16.40;99.90;;;;;;6176418;23;20145;-81
2022/03/26 11:32:51;;;;;;;36.43;26.67;;;16.50;99.90;;;;;;6210627;22;20130;-81
2022/03/26 11:35:18;;;;;;;43.63;27.93;;;16.70;99.90;;;;;;6211459;23;20153;-84
2022/03/26 11:38:00;;;;;;;42.60;27.43;;;16.90;99.90;;;;;;6209473;23;20146;-80
2022/03/26 11:40:48;;;;;;;36.07;26.47;;;17.00;99.90;;;;;;6212037;22;20142;-82
2022/03/26 11:43:38;;;;;;;43.10;28.10;;;17.00;99.90;;;;;;6184640;23;20200;-82
2022/03/26 11:51:59;;;;;;;37.90;24.97;;;17.40;99.90;;;;;;6211398;23;20197;-85
2022/03/26 11:55:03;;;;;;;36.53;26.00;;;17.30;99.90;;;;;;6206676;23;20145;-86
2022/03/26 11:57:32;;;;;;;36.07;25.07;;;17.10;99.90;;;;;;6172217;23;20148;-83
2022/03/26 12:00:17;;;;;;;40.37;26.27;;;17.20;99.90;;;;;;6203663;23;20118;-86
2022/03/26 12:02:55;;;;;;;36.03;25.53;;;17.40;99.90;;;;;;6204568;23;20182;-83
2022/03/26 12:08:38;;;;;;;39.47;26.20;;;17.60;99.90;;;;;;6204233;23;20176;-85
2022/03/26 12:11:04;;;;;;;34.90;23.20;;;17.60;99.90;;;;;;6178016;23;20177;-82
2022/03/26 12:13:34;;;;;;;37.23;25.60;;;17.50;99.90;;;;;;6181804;23;20170;-80
2022/03/26 12:16:04;;;;;;;35.07;23.27;;;17.60;99.90;;;;;;6187505;23;20142;-78
2022/03/26 12:18:35;;;;;;;39.97;23.47;;;17.60;99.90;;;;;;6201943;23;20142;-81
2022/03/26 12:21:20;;;;;;;35.00;24.63;;;17.50;99.90;;;;;;6196617;23;20142;-80
2022/03/26 12:23:49;;;;;;;38.80;26.77;;;17.50;99.90;;;;;;6170731;23;20185;-79
2022/03/26 12:26:21;;;;;;;37.57;25.53;;;17.50;99.90;;;;;;6195437;23;20183;-85
2022/03/26 12:28:49;;;;;;;37.83;26.40;;;17.60;99.90;;;;;;6194176;23;20455;-86
2022/03/26 12:31:17;;;;;;;30.47;22.63;;;17.80;99.90;;;;;;6196268;23;20163;-83
2022/03/26 12:33:54;;;;;;;36.37;23.93;;;17.80;99.90;;;;;;6194261;23;20137;-83
2022/03/26 12:36:22;;;;;;;38.47;26.60;;;17.70;99.90;;;;;;6201261;23;20162;-84
2022/03/26 12:38:49;;;;;;;38.33;27.70;;;17.50;99.90;;;;;;6208550;23;20173;-84
2022/03/26 12:41:18;;;;;;;35.87;24.57;;;17.60;99.90;;;;;;6204896;23;20146;-80
2022/03/26 12:44:01;;;;;;;33.57;24.17;;;17.70;99.90;;;;;;6197905;23;20513;-84
2022/03/26 12:46:37;;;;;;;33.90;23.30;;;17.90;99.90;;;;;;6192523;23;20614;-81
2022/03/26 12:49:18;;;;;;;31.70;23.23;;;18.00;99.90;;;;;;6192886;23;20145;-78
2022/03/26 12:51:56;;;;;;;33.90;23.30;;;18.10;99.90;;;;;;6210093;23;20152;-77